Time;durP1;ratioP1;P1;durP2;ratioP2;P2;SDS_P1;SDS_P2;PMS_P1;PMS_P2;Temp;Humidity;BMP_temperature;BMP_pressure;BME280_temperature;BME280_humidity;BME280_pressure;Samples;Min_cycle;Max_cycle;Signal;HPM_P1;HPM_P2
2022/03/18 00:00:20;;;;;;;21.97;18.57;;;10.00;99.90;;;;;;5034087;28;20593;-57
2022/03/18 00:02:50;;;;;;;21.40;18.40;;;10.10;99.90;;;;;;5034422;28;20296;-57
2022/03/18 00:05:17;;;;;;;22.17;18.47;;;10.10;99.90;;;;;;5034247;28;20626;-57
2022/03/18 00:07:45;;;;;;;20.43;18.03;;;10.10;99.90;;;;;;5034081;28;20207;-56
2022/03/18 00:10:13;;;;;;;19.93;17.57;;;10.20;99.90;;;;;;5034346;28;20265;-57
2022/03/18 00:12:40;;;;;;;24.00;19.73;;;10.20;99.90;;;;;;5034094;28;20241;-57
2022/03/18 00:15:08;;;;;;;20.70;17.70;;;10.30;99.90;;;;;;5034458;28;20202;-56
2022/03/18 00:17:35;;;;;;;19.00;16.77;;;10.40;99.90;;;;;;5034057;28;20206;-56
2022/03/18 00:20:04;;;;;;;19.93;16.90;;;10.50;99.90;;;;;;5034173;28;20230;-56
2022/03/18 00:22:31;;;;;;;18.50;16.47;;;10.50;99.90;;;;;;5034161;28;20279;-56
2022/03/18 00:24:58;;;;;;;20.53;17.30;;;10.50;99.90;;;;;;5034135;28;20218;-56
2022/03/18 00:27:26;;;;;;;20.17;16.57;;;10.60;99.90;;;;;;5033743;28;20260;-56
2022/03/18 00:29:54;;;;;;;16.97;15.17;;;10.50;99.90;;;;;;5034113;28;20258;-55
2022/03/18 00:32:21;;;;;;;18.37;16.37;;;10.40;99.90;;;;;;5033802;28;20207;-56
2022/03/18 00:34:47;;;;;;;20.10;15.83;;;10.40;99.90;;;;;;5033897;28;20206;-55
2022/03/18 00:37:15;;;;;;;20.37;15.97;;;10.40;99.90;;;;;;5033701;28;20275;-57
2022/03/18 00:39:42;;;;;;;19.53;16.40;;;10.30;99.90;;;;;;5033495;28;20257;-57
2022/03/18 00:42:09;;;;;;;18.97;15.97;;;10.30;99.90;;;;;;5033911;28;20220;-57
2022/03/18 00:44:37;;;;;;;21.10;16.50;;;10.40;99.90;;;;;;5033741;28;20206;-58
2022/03/18 00:51:58;;;;;;;16.90;15.10;;;10.40;99.90;;;;;;5033458;28;20217;-56
2022/03/18 00:52:37;;;;;;;18.20;15.47;;;10.10;99.90;;;;;;5033759;28;20256;-57
2022/03/18 00:55:04;;;;;;;16.73;14.97;;;10.00;99.90;;;;;;5033737;28;20207;-56
2022/03/18 00:57:31;;;;;;;18.27;14.83;;;10.10;99.90;;;;;;5033595;28;20257;-56
2022/03/18 00:59:58;;;;;;;17.67;15.13;;;10.10;99.90;;;;;;5033573;28;20230;-56
2022/03/18 01:02:25;;;;;;;18.17;15.13;;;10.00;99.90;;;;;;5033511;28;20260;-57
2022/03/18 01:04:51;;;;;;;18.37;15.23;;;10.00;99.90;;;;;;5033480;28;20264;-57
2022/03/18 01:07:18;;;;;;;20.00;15.50;;;10.10;99.90;;;;;;5033225;28;20225;-56
2022/03/18 01:09:46;;;;;;;18.23;15.23;;;10.10;99.90;;;;;;5033848;28;20230;-58
2022/03/18 01:12:13;;;;;;;16.60;14.10;;;10.20;99.90;;;;;;5033292;28;20229;-57
2022/03/18 01:14:39;;;;;;;16.97;14.70;;;10.30;99.90;;;;;;5033550;28;20580;-57
2022/03/18 01:17:06;;;;;;;17.80;14.30;;;10.30;99.90;;;;;;5033136;28;20209;-57
2022/03/18 01:19:33;;;;;;;16.50;14.20;;;10.30;99.90;;;;;;5033190;28;20226;-58
2022/03/18 01:22:00;;;;;;;15.70;14.10;;;10.30;99.90;;;;;;5033298;28;20276;-56
2022/03/18 01:24:26;;;;;;;18.00;14.50;;;10.30;99.90;;;;;;5033335;28;20213;-56
2022/03/18 01:26:54;;;;;;;16.87;14.23;;;10.30;99.90;;;;;;5032662;28;20640;-58
2022/03/18 01:29:21;;;;;;;17.13;14.30;;;10.20;99.90;;;;;;5032979;28;20299;-56
2022/03/18 01:31:48;;;;;;;17.03;14.70;;;10.30;99.90;;;;;;5033353;28;20214;-57
2022/03/18 01:34:15;;;;;;;16.87;15.00;;;10.40;99.90;;;;;;5033238;28;20214;-56
2022/03/18 01:36:41;;;;;;;17.00;14.10;;;10.50;99.90;;;;;;5032565;28;20646;-57
2022/03/18 01:39:08;;;;;;;16.40;13.70;;;10.50;99.90;;;;;;5059842;22;20259;-60
2022/03/18 01:41:35;;;;;;;16.03;13.17;;;10.50;99.90;;;;;;5044059;28;20218;-59
2022/03/18 01:44:03;;;;;;;17.43;13.97;;;10.40;99.90;;;;;;5052387;28;20205;-61
2022/03/18 01:46:29;;;;;;;15.40;13.57;;;10.30;99.90;;;;;;5052348;28;20275;-61
2022/03/18 01:48:56;;;;;;;17.87;13.60;;;10.30;99.90;;;;;;5052380;28;20225;-60
2022/03/18 01:51:23;;;;;;;15.73;13.30;;;10.30;99.90;;;;;;5052489;28;20201;-59
2022/03/18 01:54:44;;;;;;;14.70;13.07;;;10.40;99.90;;;;;;5052170;28;20578;-60
2022/03/18 01:56:38;;;;;;;15.83;13.57;;;10.50;99.90;;;;;;5051788;28;20275;-59
2022/03/18 01:59:06;;;;;;;15.73;13.47;;;10.60;99.90;;;;;;5052064;28;20267;-59
2022/03/18 02:01:33;;;;;;;16.10;14.10;;;10.60;99.90;;;;;;5052125;28;20229;-59
2022/03/18 02:04:00;;;;;;;16.63;13.90;;;10.50;99.90;;;;;;5052363;28;20657;-60
2022/03/18 02:06:26;;;;;;;16.60;13.43;;;10.50;99.90;;;;;;5051911;28;20637;-60
2022/03/18 02:08:53;;;;;;;15.83;14.13;;;10.40;99.90;;;;;;5051977;28;20225;-60
2022/03/18 02:11:20;;;;;;;16.03;14.27;;;10.40;99.90;;;;;;5051828;28;20232;-59
2022/03/18 02:13:50;;;;;;;17.37;14.23;;;10.30;99.90;;;;;;5052393;28;20205;-60
2022/03/18 02:16:18;;;;;;;17.73;14.87;;;10.20;99.90;;;;;;5051819;28;20221;-60
2022/03/18 02:18:45;;;;;;;16.67;14.37;;;10.10;99.90;;;;;;5051741;28;20233;-60
2022/03/18 02:21:15;;;;;;;17.90;14.63;;;10.00;99.90;;;;;;5051889;28;20267;-60
2022/03/18 02:23:44;;;;;;;15.13;13.57;;;9.90;99.90;;;;;;5052063;28;20228;-60
2022/03/18 02:26:14;;;;;;;17.97;14.47;;;9.90;99.90;;;;;;5051988;28;20292;-60
2022/03/18 02:28:41;;;;;;;17.77;14.80;;;9.90;99.90;;;;;;5051673;28;20261;-61
2022/03/18 02:31:08;;;;;;;17.50;14.30;;;9.90;99.90;;;;;;5051797;28;20259;-59
2022/03/18 02:33:34;;;;;;;17.77;14.87;;;9.90;99.90;;;;;;5051749;28;20205;-59
2022/03/18 02:36:01;;;;;;;16.87;14.77;;;10.00;99.90;;;;;;5051630;28;20213;-60
2022/03/18 02:38:28;;;;;;;18.13;15.70;;;10.10;99.90;;;;;;5051206;28;20259;-60
2022/03/18 02:40:56;;;;;;;17.17;14.93;;;10.20;99.90;;;;;;5051809;28;20222;-59
2022/03/18 02:43:22;;;;;;;17.53;13.93;;;10.30;99.90;;;;;;5051732;28;20225;-60
2022/03/18 02:45:49;;;;;;;16.10;13.90;;;10.50;99.90;;;;;;5051515;28;20206;-61
2022/03/18 02:48:16;;;;;;;17.30;14.90;;;10.40;99.90;;;;;;5051516;28;20216;-60
2022/03/18 02:50:42;;;;;;;18.30;15.27;;;10.40;99.90;;;;;;5053322;28;20228;-60
2022/03/18 02:53:10;;;;;;;18.47;14.23;;;10.50;99.90;;;;;;5055430;28;20213;-59
2022/03/18 02:55:37;;;;;;;19.10;15.03;;;10.40;99.90;;;;;;5055722;28;20216;-60
2022/03/18 02:58:05;;;;;;;19.50;15.17;;;10.40;99.90;;;;;;5055368;28;20209;-60
2022/03/18 03:00:31;;;;;;;17.53;14.07;;;10.40;99.90;;;;;;5055387;28;20286;-60
2022/03/18 03:02:58;;;;;;;18.33;14.30;;;10.40;99.90;;;;;;5055493;28;20208;-59
2022/03/18 03:08:09;;;;;;;16.90;15.10;;;10.60;99.90;;;;;;5055188;28;20581;-59
2022/03/18 03:10:37;;;;;;;18.33;15.53;;;10.60;99.90;;;;;;5055283;28;20274;-60
2022/03/18 03:13:10;;;;;;;18.97;14.77;;;10.60;99.90;;;;;;5055376;28;20293;-59
2022/03/18 03:15:38;;;;;;;18.93;15.03;;;10.60;99.90;;;;;;5055182;28;20217;-59
2022/03/18 03:18:05;;;;;;;17.33;14.87;;;10.60;99.90;;;;;;5054765;28;20206;-60
2022/03/18 03:20:32;;;;;;;21.83;16.40;;;10.70;99.90;;;;;;5054873;28;20653;-59
2022/03/18 03:22:59;;;;;;;17.97;14.90;;;10.80;99.90;;;;;;5055169;28;20201;-60
2022/03/18 03:25:25;;;;;;;17.70;15.07;;;10.80;99.90;;;;;;5055141;28;20202;-59
2022/03/18 03:27:52;;;;;;;19.07;14.73;;;10.80;99.90;;;;;;5054769;28;20359;-61
2022/03/18 03:30:21;;;;;;;17.77;15.10;;;10.80;99.90;;;;;;5054717;28;20321;-60
2022/03/18 03:32:49;;;;;;;18.33;14.63;;;10.70;99.90;;;;;;5054998;28;20206;-60
2022/03/18 03:35:16;;;;;;;18.20;14.17;;;10.60;99.90;;;;;;5054908;28;20288;-59
2022/03/18 03:37:43;;;;;;;16.77;14.23;;;10.70;99.90;;;;;;5054687;28;20296;-61
2022/03/18 03:40:13;;;;;;;16.83;14.30;;;10.70;99.90;;;;;;5054676;28;20238;-59
2022/03/18 03:42:40;;;;;;;17.43;14.77;;;10.70;99.90;;;;;;5054650;28;20700;-60
2022/03/18 03:45:09;;;;;;;16.87;14.10;;;10.70;99.90;;;;;;5054773;28;20241;-60
2022/03/18 03:47:37;;;;;;;20.43;15.30;;;10.70;99.90;;;;;;5054442;28;20615;-60
2022/03/18 03:50:04;;;;;;;18.50;14.80;;;10.70;99.90;;;;;;5054459;28;20717;-60
2022/03/18 03:52:32;;;;;;;17.53;14.60;;;10.70;99.90;;;;;;5054486;28;20689;-60
2022/03/18 03:54:59;;;;;;;18.80;14.77;;;10.70;99.90;;;;;;5054513;28;20213;-60
2022/03/18 03:57:26;;;;;;;20.77;15.13;;;10.70;99.90;;;;;;5054132;28;20206;-59
2022/03/18 03:59:52;;;;;;;18.67;14.40;;;10.70;99.90;;;;;;5054063;28;20299;-60
2022/03/18 04:02:20;;;;;;;19.10;14.30;;;10.80;99.90;;;;;;5054036;28;20222;-60
2022/03/18 04:04:48;;;;;;;21.43;17.43;;;10.80;99.90;;;;;;5054555;28;20208;-60
2022/03/18 04:07:15;;;;;;;18.13;14.83;;;10.80;99.90;;;;;;5054141;28;20209;-59
2022/03/18 04:09:42;;;;;;;20.47;16.63;;;10.80;99.90;;;;;;5054246;28;20229;-60
2022/03/18 04:12:09;;;;;;;18.57;13.80;;;10.80;99.90;;;;;;5054474;28;20540;-60
2022/03/18 04:14:36;;;;;;;16.53;13.93;;;10.70;99.90;;;;;;5054375;28;20210;-60
2022/03/18 04:17:03;;;;;;;17.03;13.87;;;10.70;99.90;;;;;;5053945;28;20252;-59
2022/03/18 04:19:30;;;;;;;17.03;13.77;;;10.70;99.90;;;;;;5054023;28;20317;-60
2022/03/18 04:21:58;;;;;;;18.00;14.47;;;10.60;99.90;;;;;;5054048;28;20225;-59
2022/03/18 04:24:25;;;;;;;21.67;14.70;;;10.60;99.90;;;;;;5054079;28;20331;-59
2022/03/18 04:26:52;;;;;;;17.37;14.90;;;10.40;99.90;;;;;;5053380;28;20649;-60
2022/03/18 04:29:18;;;;;;;18.70;15.10;;;10.40;99.90;;;;;;5053936;28;20226;-60
2022/03/18 04:31:45;;;;;;;18.97;15.10;;;10.40;99.90;;;;;;5053889;28;20271;-59
2022/03/18 04:34:12;;;;;;;19.77;14.77;;;10.30;99.90;;;;;;5053778;28;20232;-60
2022/03/18 04:36:40;;;;;;;20.33;14.57;;;10.30;99.90;;;;;;5053709;28;20209;-59
2022/03/18 04:39:08;;;;;;;17.70;14.77;;;10.10;99.90;;;;;;5053221;28;20233;-59
2022/03/18 04:41:35;;;;;;;18.63;14.90;;;9.90;99.90;;;;;;5053379;28;20275;-59
2022/03/18 04:44:02;;;;;;;20.57;15.20;;;9.70;99.90;;;;;;5053723;28;20209;-60
2022/03/18 04:46:31;;;;;;;18.60;15.33;;;9.70;99.90;;;;;;5053568;28;20327;-60
2022/03/18 04:48:58;;;;;;;20.40;15.53;;;9.70;99.90;;;;;;5053187;28;20332;-59
2022/03/18 04:51:24;;;;;;;18.50;15.17;;;9.60;99.90;;;;;;5053384;28;20197;-60
2022/03/18 04:53:51;;;;;;;18.63;15.97;;;9.70;99.90;;;;;;5053194;28;20213;-60
2022/03/18 04:59:03;;;;;;;17.73;15.07;;;9.60;99.90;;;;;;5053147;28;20245;-60
2022/03/18 05:01:31;;;;;;;19.23;15.60;;;9.40;99.90;;;;;;5053289;28;20229;-59
2022/03/18 05:03:58;;;;;;;19.93;14.80;;;9.50;99.90;;;;;;5053128;28;20209;-59
2022/03/18 05:06:25;;;;;;;17.73;14.27;;;9.40;99.90;;;;;;5052990;28;20209;-61
2022/03/18 05:08:52;;;;;;;18.73;15.33;;;9.30;99.90;;;;;;5052969;28;20230;-60
2022/03/18 05:11:20;;;;;;;19.67;15.10;;;9.30;99.90;;;;;;5053332;28;20263;-61
2022/03/18 05:13:46;;;;;;;21.47;15.83;;;9.30;99.90;;;;;;5052028;28;20202;-61
2022/03/18 05:16:15;;;;;;;18.00;14.63;;;9.40;99.90;;;;;;5052963;28;20209;-60
2022/03/18 05:18:41;;;;;;;18.13;15.20;;;9.40;99.90;;;;;;5052564;28;20308;-60
2022/03/18 05:21:08;;;;;;;17.87;15.00;;;9.30;99.90;;;;;;5053077;28;20288;-59
2022/03/18 05:23:35;;;;;;;21.27;16.13;;;9.20;99.90;;;;;;5053050;28;20205;-59
2022/03/18 05:26:01;;;;;;;20.70;15.77;;;9.20;99.90;;;;;;5052779;28;20213;-60
2022/03/18 05:28:29;;;;;;;19.83;15.77;;;9.20;99.90;;;;;;5052673;28;20253;-60
2022/03/18 05:30:56;;;;;;;21.03;15.73;;;9.20;99.90;;;;;;5052723;28;20645;-59
2022/03/18 05:33:23;;;;;;;21.23;15.23;;;9.20;99.90;;;;;;5052564;28;20630;-60
2022/03/18 05:35:50;;;;;;;18.60;15.20;;;9.10;99.90;;;;;;5052547;28;20669;-60
2022/03/18 05:38:17;;;;;;;19.47;16.63;;;9.10;99.90;;;;;;5052395;28;20209;-59
2022/03/18 05:40:43;;;;;;;20.80;15.90;;;9.20;99.90;;;;;;5052186;28;20278;-60
2022/03/18 05:43:10;;;;;;;20.73;15.20;;;9.30;99.90;;;;;;5052313;28;20596;-61
2022/03/18 05:45:39;;;;;;;19.60;14.90;;;9.30;99.90;;;;;;5052828;28;20210;-59
2022/03/18 05:48:07;;;;;;;19.57;15.80;;;9.40;99.90;;;;;;5052007;28;20210;-60
2022/03/18 05:50:34;;;;;;;20.77;15.90;;;9.30;99.90;;;;;;5052260;28;20705;-60
2022/03/18 05:53:01;;;;;;;19.47;16.30;;;9.30;99.90;;;;;;5052409;28;20202;-59
2022/03/18 05:56:52;;;;;;;21.47;16.90;;;9.30;99.90;;;;;;5052312;28;20205;-60
2022/03/18 05:58:16;;;;;;;20.13;16.27;;;9.40;99.90;;;;;;5051650;28;20292;-59
2022/03/18 06:00:44;;;;;;;23.70;17.03;;;9.40;99.90;;;;;;5052202;28;20232;-60
2022/03/18 06:03:12;;;;;;;21.60;17.37;;;9.40;99.90;;;;;;5052176;28;20236;-60
2022/03/18 06:05:39;;;;;;;20.00;16.53;;;9.40;99.90;;;;;;5052159;28;20213;-59
2022/03/18 06:13:35;;;;;;;24.50;17.47;;;9.50;99.90;;;;;;5051875;28;20201;-61
2022/03/18 06:16:03;;;;;;;23.57;17.67;;;9.50;99.90;;;;;;5051926;28;20205;-60
2022/03/18 06:18:29;;;;;;;23.40;18.27;;;9.50;99.90;;;;;;5051860;28;20624;-60
2022/03/18 06:20:57;;;;;;;23.53;17.83;;;9.50;99.90;;;;;;5051839;28;20263;-61
2022/03/18 06:23:23;;;;;;;22.80;17.47;;;9.40;99.90;;;;;;5051678;28;20226;-60
2022/03/18 06:25:50;;;;;;;23.50;17.83;;;9.40;99.90;;;;;;5051473;28;20618;-60
2022/03/18 06:28:17;;;;;;;26.50;18.47;;;9.50;99.90;;;;;;5051721;28;20205;-60
2022/03/18 06:30:45;;;;;;;30.80;19.03;;;9.60;99.90;;;;;;5051977;28;20699;-60
2022/03/18 06:33:13;;;;;;;23.60;18.43;;;9.60;99.90;;;;;;5051661;28;20255;-60
2022/03/18 06:35:39;;;;;;;25.63;19.53;;;9.60;99.90;;;;;;5051490;28;20210;-60
2022/03/18 06:38:06;;;;;;;23.43;18.37;;;9.60;99.90;;;;;;5051264;28;20665;-60
2022/03/18 06:40:33;;;;;;;25.90;19.80;;;9.50;99.90;;;;;;5051359;28;20260;-61
2022/03/18 06:42:59;;;;;;;26.93;19.13;;;9.60;99.90;;;;;;5051654;28;20233;-60
2022/03/18 06:45:26;;;;;;;25.53;20.03;;;9.60;99.90;;;;;;5051577;28;20206;-60
2022/03/18 06:47:53;;;;;;;27.00;20.53;;;9.70;99.90;;;;;;5051029;28;20213;-61
2022/03/18 06:50:22;;;;;;;26.67;19.93;;;9.70;99.90;;;;;;5051072;28;20226;-62
2022/03/18 06:52:49;;;;;;;25.87;19.87;;;9.90;99.90;;;;;;5051474;28;20251;-63
2022/03/18 06:55:15;;;;;;;27.90;21.67;;;10.00;99.90;;;;;;5051415;28;20201;-63
2022/03/18 06:57:43;;;;;;;29.50;21.20;;;10.00;99.90;;;;;;5051179;28;20205;-63
2022/03/18 07:00:10;;;;;;;25.53;19.90;;;10.00;99.90;;;;;;5051420;28;20222;-63
2022/03/18 07:02:37;;;;;;;30.07;21.30;;;10.00;99.90;;;;;;5051378;28;20312;-63
2022/03/18 07:05:05;;;;;;;28.90;20.50;;;10.00;99.90;;;;;;5051149;28;20213;-63
2022/03/18 07:07:33;;;;;;;27.97;20.77;;;10.00;99.90;;;;;;5051782;28;20247;-62
2022/03/18 07:10:00;;;;;;;26.07;20.73;;;10.00;99.90;;;;;;5051550;28;20259;-63
2022/03/18 07:12:27;;;;;;;28.90;20.77;;;10.00;99.90;;;;;;5051373;28;20208;-63
2022/03/18 07:14:54;;;;;;;28.77;21.73;;;10.00;99.90;;;;;;5051317;28;20292;-62
2022/03/18 07:20:06;;;;;;;33.37;24.63;;;10.10;99.90;;;;;;5051289;28;20283;-63
2022/03/18 07:22:34;;;;;;;30.23;23.17;;;10.20;99.90;;;;;;5051243;28;20233;-63
2022/03/18 07:25:01;;;;;;;30.47;21.87;;;10.20;99.90;;;;;;5051180;28;20225;-61
2022/03/18 07:27:27;;;;;;;29.93;22.67;;;10.40;99.90;;;;;;5050847;28;20201;-62
2022/03/18 07:29:54;;;;;;;28.40;21.80;;;10.50;99.90;;;;;;5050995;28;20226;-61
2022/03/18 07:32:21;;;;;;;29.63;21.43;;;10.60;99.90;;;;;;5051540;28;20201;-61
2022/03/18 07:34:47;;;;;;;28.87;22.03;;;10.70;99.90;;;;;;5051127;28;20212;-61
2022/03/18 07:37:14;;;;;;;31.43;22.10;;;10.90;99.90;;;;;;5051618;28;20206;-61
2022/03/18 07:39:42;;;;;;;29.80;22.23;;;11.00;99.90;;;;;;5055052;28;20229;-61
2022/03/18 07:42:09;;;;;;;27.13;21.13;;;11.10;99.90;;;;;;5054563;28;20226;-61
2022/03/18 07:44:36;;;;;;;30.77;20.37;;;11.10;99.90;;;;;;5054478;28;20202;-61
2022/03/18 07:47:03;;;;;;;30.83;22.67;;;11.10;99.90;;;;;;5054344;28;20296;-61
2022/03/18 07:49:30;;;;;;;30.40;22.67;;;11.10;99.90;;;;;;5054543;28;20279;-61
2022/03/18 07:51:57;;;;;;;29.80;20.40;;;11.20;99.90;;;;;;5054473;28;20211;-59
2022/03/18 07:54:24;;;;;;;28.10;20.80;;;11.30;99.90;;;;;;5054446;28;20259;-61
2022/03/18 07:56:52;;;;;;;27.47;21.93;;;11.30;99.90;;;;;;5054442;28;20296;-62
2022/03/18 07:59:18;;;;;;;29.70;21.97;;;11.30;99.90;;;;;;5053861;28;20225;-61
2022/03/18 08:01:45;;;;;;;26.43;20.80;;;11.40;99.90;;;;;;5054509;28;20263;-61
2022/03/18 08:04:13;;;;;;;29.53;21.10;;;11.40;99.90;;;;;;5054386;28;20217;-61
2022/03/18 08:06:40;;;;;;;25.73;20.47;;;11.40;99.90;;;;;;5054428;28;20210;-61
2022/03/18 08:09:07;;;;;;;31.53;22.30;;;11.50;99.90;;;;;;5054151;28;20465;-61
2022/03/18 08:11:34;;;;;;;26.03;21.10;;;11.70;99.90;;;;;;5054304;28;20286;-60
2022/03/18 08:14:02;;;;;;;26.67;20.10;;;11.80;99.90;;;;;;5054177;28;20202;-61
2022/03/18 08:16:29;;;;;;;26.47;20.73;;;11.80;99.90;;;;;;5053993;28;20251;-61
2022/03/18 08:18:57;;;;;;;25.17;19.20;;;11.90;99.90;;;;;;5053799;28;20740;-61
2022/03/18 08:21:24;;;;;;;25.17;19.53;;;11.90;99.90;;;;;;5053928;28;20245;-60
2022/03/18 08:23:50;;;;;;;23.30;19.00;;;11.90;99.90;;;;;;5053881;28;20225;-61
2022/03/18 08:26:17;;;;;;;23.70;18.07;;;12.00;99.90;;;;;;5053786;28;20212;-61
2022/03/18 08:28:44;;;;;;;24.83;17.87;;;12.00;99.90;;;;;;5053905;28;20229;-61
2022/03/18 08:31:12;;;;;;;24.77;17.93;;;11.90;99.90;;;;;;5054123;28;20677;-61
2022/03/18 08:33:38;;;;;;;24.57;18.23;;;11.80;99.90;;;;;;5053934;28;20205;-61
2022/03/18 08:36:05;;;;;;;22.17;18.10;;;11.80;99.90;;;;;;5054035;28;20209;-60
2022/03/18 08:38:32;;;;;;;24.40;17.47;;;11.70;99.90;;;;;;5053135;28;20288;-60
2022/03/18 08:40:59;;;;;;;23.30;17.90;;;11.70;99.90;;;;;;5053627;28;20267;-60
2022/03/18 08:43:25;;;;;;;23.83;16.37;;;11.60;99.90;;;;;;5053762;28;20256;-61
2022/03/18 08:45:52;;;;;;;24.77;16.97;;;11.60;99.90;;;;;;5053861;28;20239;-60
2022/03/18 08:48:20;;;;;;;20.53;15.63;;;11.70;99.90;;;;;;5052985;28;20669;-61
2022/03/18 08:50:47;;;;;;;19.13;14.90;;;11.80;99.90;;;;;;5053285;28;20636;-61
2022/03/18 08:53:14;;;;;;;22.10;16.33;;;11.80;99.90;;;;;;5053296;28;20221;-59
2022/03/18 08:55:41;;;;;;;23.13;16.60;;;11.80;99.90;;;;;;5053629;28;20206;-61
2022/03/18 08:58:08;;;;;;;22.33;16.87;;;11.80;99.90;;;;;;5052806;28;20213;-61
2022/03/18 09:00:35;;;;;;;22.37;16.17;;;11.90;99.90;;;;;;5053160;28;20341;-61
2022/03/18 09:03:02;;;;;;;21.97;16.83;;;12.00;99.90;;;;;;5053325;28;20248;-61
2022/03/18 09:05:30;;;;;;;25.43;15.83;;;12.10;99.90;;;;;;5053092;28;20559;-61
2022/03/18 09:07:57;;;;;;;21.27;15.87;;;12.10;99.90;;;;;;5053062;28;20213;-61
2022/03/18 09:10:24;;;;;;;22.10;17.03;;;12.00;99.90;;;;;;5053498;28;20283;-60
2022/03/18 09:12:58;;;;;;;22.50;17.10;;;12.10;99.90;;;;;;5053405;28;20208;-61
2022/03/18 09:15:25;;;;;;;24.50;17.00;;;12.20;99.90;;;;;;5053279;28;20260;-60
2022/03/18 09:17:52;;;;;;;22.77;16.40;;;12.10;99.90;;;;;;5052793;28;20209;-62
2022/03/18 09:20:18;;;;;;;22.97;16.37;;;12.10;99.90;;;;;;5052967;28;20229;-68
2022/03/18 09:22:46;;;;;;;24.03;16.13;;;11.80;99.90;;;;;;5052932;28;20279;-57
2022/03/18 09:25:14;;;;;;;24.57;17.87;;;11.80;99.90;;;;;;5053555;28;20255;-61
2022/03/18 09:27:41;;;;;;;23.77;17.07;;;11.90;99.90;;;;;;5052674;28;20206;-61
2022/03/18 09:30:09;;;;;;;23.97;17.13;;;12.20;99.90;;;;;;5053069;28;20221;-60
2022/03/18 09:32:36;;;;;;;24.37;17.33;;;12.10;99.90;;;;;;5052751;28;20209;-61
2022/03/18 09:35:04;;;;;;;23.37;16.07;;;12.10;99.90;;;;;;5052551;28;20663;-60
2022/03/18 09:37:31;;;;;;;25.10;17.93;;;12.10;99.90;;;;;;5052601;28;20288;-60
2022/03/18 09:40:01;;;;;;;22.60;16.13;;;12.30;99.90;;;;;;5052547;28;20237;-61
2022/03/18 09:42:28;;;;;;;24.47;17.80;;;12.40;99.90;;;;;;5052548;28;20201;-61
2022/03/18 09:44:54;;;;;;;27.00;17.27;;;12.40;99.90;;;;;;5052471;28;20214;-61
2022/03/18 09:47:22;;;;;;;24.17;17.23;;;12.40;99.90;;;;;;5052230;28;20263;-61
2022/03/18 09:49:49;;;;;;;26.03;18.33;;;12.20;99.90;;;;;;5052148;28;20233;-61
2022/03/18 09:52:16;;;;;;;28.20;19.17;;;12.20;99.90;;;;;;5052434;28;20624;-61
2022/03/18 09:54:43;;;;;;;26.30;18.77;;;12.30;99.90;;;;;;5052067;28;20205;-61
2022/03/18 09:57:11;;;;;;;25.50;17.63;;;12.50;99.90;;;;;;5052170;28;20232;-60
2022/03/18 09:59:38;;;;;;;23.27;18.57;;;12.70;99.90;;;;;;5051823;28;20230;-61
2022/03/18 10:02:27;;;;;;;24.77;18.47;;;12.70;99.90;;;;;;5052220;28;20263;-61
2022/03/18 10:04:56;;;;;;;26.77;18.17;;;12.60;99.90;;;;;;5052158;28;20213;-60
2022/03/18 10:07:23;;;;;;;25.07;17.27;;;12.60;99.90;;;;;;5052074;28;20209;-61
2022/03/18 10:10:00;;;;;;;24.03;18.60;;;12.50;99.90;;;;;;5052168;28;20230;-61
2022/03/18 10:12:33;;;;;;;25.63;17.80;;;12.60;99.90;;;;;;5051942;28;20255;-62
2022/03/18 10:15:22;;;;;;;24.20;17.50;;;12.70;99.90;;;;;;5051769;28;20210;-62
2022/03/18 10:17:50;;;;;;;25.17;18.47;;;12.70;99.90;;;;;;5047443;28;20206;-61
2022/03/18 10:20:34;;;;;;;26.10;18.47;;;12.70;99.90;;;;;;5051648;28;20230;-62
2022/03/18 10:23:17;;;;;;;26.37;17.73;;;12.50;99.90;;;;;;5051437;28;20220;-62
2022/03/18 10:25:50;;;;;;;23.67;17.87;;;12.60;99.90;;;;;;5051901;28;20251;-61
2022/03/18 10:28:36;;;;;;;25.53;18.20;;;12.70;99.90;;;;;;5051573;28;20236;-61
2022/03/18 10:31:25;;;;;;;25.60;19.13;;;12.90;99.90;;;;;;5051581;28;20209;-62
2022/03/18 10:39:25;;;;;;;27.50;18.93;;;13.20;99.90;;;;;;5051155;28;20355;-62
2022/03/18 10:41:52;;;;;;;26.73;18.57;;;13.20;99.90;;;;;;5051438;28;20205;-62
2022/03/18 10:44:21;;;;;;;22.07;18.67;;;13.40;99.90;;;;;;5051727;28;20255;-62
2022/03/18 10:46:49;;;;;;;25.70;18.67;;;13.20;99.90;;;;;;5051286;28;20255;-62
2022/03/18 10:49:16;;;;;;;26.57;17.90;;;13.20;99.90;;;;;;5050942;28;20229;-63
2022/03/18 10:51:44;;;;;;;24.07;16.87;;;13.10;99.90;;;;;;5051475;28;20622;-62
2022/03/18 10:54:11;;;;;;;24.97;18.17;;;12.90;99.90;;;;;;5051459;28;20206;-62
2022/03/18 10:56:58;;;;;;;24.43;18.27;;;12.70;99.90;;;;;;5051043;28;20618;-62
2022/03/18 10:59:27;;;;;;;27.37;18.63;;;12.80;99.90;;;;;;5050990;28;20626;-63
2022/03/18 11:01:54;;;;;;;24.17;17.80;;;12.90;99.90;;;;;;5051388;28;20669;-63
2022/03/18 11:04:23;;;;;;;25.60;19.00;;;12.80;99.90;;;;;;5051344;28;20221;-63
2022/03/18 11:12:36;;;;;;;26.57;18.13;;;13.00;99.90;;;;;;5010938;28;20206;-62
2022/03/18 11:15:05;;;;;;;25.00;18.33;;;13.00;99.90;;;;;;5036857;28;20213;-62
2022/03/18 11:17:33;;;;;;;26.23;18.07;;;13.20;99.90;;;;;;5055043;28;20202;-61
2022/03/18 11:20:01;;;;;;;22.87;18.47;;;13.30;99.90;;;;;;5055020;28;20279;-62
2022/03/18 11:22:29;;;;;;;23.07;18.07;;;13.30;99.90;;;;;;5054993;28;20233;-62
2022/03/18 11:24:59;;;;;;;22.67;17.47;;;13.30;99.90;;;;;;5054971;28;20251;-62
2022/03/18 11:27:25;;;;;;;23.37;17.77;;;13.10;99.90;;;;;;5054572;28;20271;-62
2022/03/18 11:30:22;;;;;;;23.80;18.83;;;12.90;99.90;;;;;;5054834;28;20225;-62
2022/03/18 11:33:22;;;;;;;23.57;18.53;;;12.80;99.90;;;;;;5054790;28;20669;-66
2022/03/18 11:36:19;;;;;;;25.50;18.27;;;13.00;99.90;;;;;;4992830;28;20208;-63
2022/03/18 11:39:02;;;;;;;26.93;19.07;;;13.10;99.90;;;;;;4992599;28;20243;-60
2022/03/18 11:41:46;;;;;;;27.17;18.67;;;13.10;99.90;;;;;;5039767;28;20263;-60
2022/03/18 11:44:40;;;;;;;23.93;18.03;;;13.10;99.90;;;;;;5054692;28;20697;-60
2022/03/18 11:47:40;;;;;;;26.97;19.57;;;12.90;99.90;;;;;;5054926;28;20300;-60
2022/03/18 11:50:55;;;;;;;26.60;20.07;;;12.80;99.90;;;;;;5054540;28;20253;-60
2022/03/18 11:53:51;;;;;;;28.13;19.53;;;13.00;99.90;;;;;;5054384;28;20232;-62
2022/03/18 11:56:24;;;;;;;27.20;19.23;;;13.10;99.90;;;;;;5054318;28;20233;-60
2022/03/18 11:58:50;;;;;;;26.13;18.87;;;13.20;99.90;;;;;;5053860;28;20734;-63
2022/03/18 12:01:40;;;;;;;26.03;19.70;;;13.30;99.90;;;;;;5054423;28;20212;-62
2022/03/18 12:04:09;;;;;;;24.73;19.87;;;13.40;99.90;;;;;;5054373;28;20311;-61
2022/03/18 12:07:13;;;;;;;27.83;20.37;;;13.60;99.90;;;;;;5054311;28;20210;-62
2022/03/18 12:09:52;;;;;;;23.57;17.97;;;13.80;99.90;;;;;;5056263;28;20229;-61
2022/03/18 12:12:20;;;;;;;26.17;19.90;;;13.80;99.90;;;;;;5054881;28;20216;-61
2022/03/18 12:14:47;;;;;;;24.83;19.97;;;13.80;99.90;;;;;;5054535;28;20275;-61
2022/03/18 12:17:15;;;;;;;26.33;18.90;;;13.90;99.90;;;;;;5053932;28;20202;-68
2022/03/18 12:19:52;;;;;;;24.97;18.60;;;13.90;99.90;;;;;;5053712;28;20232;-62
2022/03/18 12:22:20;;;;;;;23.47;19.40;;;13.80;99.90;;;;;;5053896;28;20669;-62
2022/03/18 12:24:48;;;;;;;24.70;20.37;;;13.80;99.90;;;;;;5053657;28;20241;-65
2022/03/18 12:27:17;;;;;;;26.83;19.57;;;13.80;99.90;;;;;;5053739;28;20214;-59
2022/03/18 12:29:44;;;;;;;24.13;18.60;;;13.90;99.90;;;;;;5053312;28;20272;-57
2022/03/18 12:32:13;;;;;;;25.00;18.53;;;14.10;99.90;;;;;;5053595;28;20206;-57
2022/03/18 12:34:48;;;;;;;23.17;18.10;;;14.00;99.90;;;;;;5053973;28;20639;-58
2022/03/18 12:37:19;;;;;;;24.57;18.83;;;14.00;99.90;;;;;;5054008;28;20483;-58
2022/03/18 12:39:46;;;;;;;24.00;17.63;;;14.10;99.90;;;;;;5053431;28;20282;-58
2022/03/18 12:42:13;;;;;;;24.25;19.33;;;14.20;99.90;;;;;;5050380;28;20811;-61
2022/03/18 12:44:45;;;;;;;21.97;18.17;;;14.40;99.90;;;;;;5052379;28;20225;-68
2022/03/18 12:47:12;;;;;;;25.87;18.97;;;14.40;99.90;;;;;;5053349;28;20300;-61
2022/03/18 12:49:39;;;;;;;21.13;17.03;;;14.40;99.90;;;;;;5052700;28;20717;-61
2022/03/18 12:52:10;;;;;;;22.30;17.60;;;14.50;99.90;;;;;;5053097;28;20202;-62
2022/03/18 12:54:38;;;;;;;21.23;17.70;;;14.60;99.90;;;;;;5053246;28;20283;-62
2022/03/18 12:57:08;;;;;;;23.13;17.77;;;14.60;99.90;;;;;;5053181;28;20212;-62
2022/03/18 12:59:37;;;;;;;22.07;16.83;;;14.50;99.90;;;;;;5052861;28;20229;-63
2022/03/18 13:02:05;;;;;;;20.33;16.20;;;14.40;99.90;;;;;;5053089;28;20213;-62
2022/03/18 13:04:33;;;;;;;20.87;16.63;;;14.20;99.90;;;;;;5052709;28;20229;-63